This is the latest recevied weather packets stored in our database for station/object F4AMY-13. If no packets are shown the sender has not sent any weather packets the latest 10 day(s).
| Time | Temp. | Humidity | Pressure | Rain* | Wind** | Luminosity | Snow |
|---|---|---|---|---|---|---|---|
| 1777642641 | 26.67° C | 39% | 1021.3 hPa | 0 mm | 149.31 m/s, ° | 334 W/m² | - |
| 1777642341 | 26.67° C | 38% | 1021.5 hPa | 0 mm | 154.68 m/s, ° | 346 W/m² | - |
| 1777642041 | 26.67° C | 40% | 1021.2 hPa | 0 mm | 167.64 m/s, ° | 375 W/m² | - |
| 1777641741 | 26.67° C | 40% | 1021.2 hPa | 0 mm | 174.35 m/s, ° | 390 W/m² | - |
| 1777641441 | 26.11° C | 43% | 1021.4 hPa | 0 mm | 170.77 m/s, ° | 382 W/m² | - |
| 1777641141 | 26.11° C | 40% | 1021.7 hPa | 0 mm | 163.17 m/s, ° | 365 W/m² | - |
| 1777640841 | 26.11° C | 34% | 1021.4 hPa | 0 mm | 160.49 m/s, ° | 359 W/m² | - |
| 1777640541 | 26.11° C | 38% | 1021.5 hPa | 0 mm | 171.22 m/s, ° | 383 W/m² | - |
| 1777640241 | 26.11° C | 33% | 1021.2 hPa | 0 mm | 157.81 m/s, ° | 353 W/m² | - |
| 1777639941 | 26.11° C | 34% | 1021.3 hPa | 0 mm | 161.38 m/s, ° | 361 W/m² | - |
| 1777639641 | 26.11° C | 37% | 1021.4 hPa | 0 mm | 166.75 m/s, ° | 373 W/m² | - |
| 1777639340 | 26.11° C | 37% | 1021.3 hPa | 0 mm | 170.77 m/s, ° | 382 W/m² | - |
| 1777639040 | 26.11° C | 36% | 1021.3 hPa | 0 mm | 164.06 m/s, ° | 367 W/m² | - |
| 1777638740 | 26.11° C | 39% | 1021.7 hPa | 0 mm | 166.3 m/s, ° | 372 W/m² | - |
| 1777638440 | 25.56° C | 34% | 1021.7 hPa | 0 mm | 171.22 m/s, ° | 383 W/m² | - |
| 1777638140 | 25.56° C | 39% | 1021.4 hPa | 0 mm | 175.69 m/s, ° | 393 W/m² | - |
| 1777637840 | 25.56° C | 36% | 1021.3 hPa | 0 mm | 173 m/s, ° | 387 W/m² | - |
| 1777637540 | 25° C | 40% | 1021.5 hPa | 0 mm | 180.6 m/s, ° | 404 W/m² | - |
| 1777637240 | 25° C | 36% | 1021.5 hPa | 0 mm | 170.32 m/s, ° | 381 W/m² | - |
| 1777636940 | 24.44° C | 40% | 1021.6 hPa | 0 mm | 149.76 m/s, ° | 335 W/m² | - |
| 1777636640 | 24.44° C | 39% | 1021.7 hPa | 0 mm | 175.69 m/s, ° | 393 W/m² | - |
| 1777636340 | 23.89° C | 41% | 1021.8 hPa | 0 mm | 153.78 m/s, ° | 344 W/m² | - |
| 1777636040 | 23.89° C | 38% | 1021.9 hPa | 0 mm | 139.48 m/s, ° | 312 W/m² | - |
| 1777635740 | 23.89° C | 37% | 1021.9 hPa | 0 mm | 156.02 m/s, ° | 349 W/m² | - |
| 1777635440 | 23.89° C | 39% | 1021.8 hPa | 0 mm | 157.36 m/s, ° | 352 W/m² | - |
* Rain latest hour (hover to see other rain measurements)
** Current wind speed in m/s (hover to see current wind gust speed)